EIN989 EIDW-KMSP
Flight info
| Callsign | EIN989 |
|---|---|
| Flight time | N/A |
| Altitude | 34000 |
| Route | SUROX3J SUROX DCT ERNAN DCT NIBOG DCT BILTO NATA DORYY/N0462F340 DCT JOVIE DCT VANSI DCT PEMLU DCT YQT DCT DLH DCT COLDD BAINY4 |
| Aircraft | A21N/M-SDE2E3FGHIJ1RWXY/LB1 |
Departure
| Time | N/A |
|---|---|
| Airport | Dublin Airport (EIDW) |
Arrival
| Time | 2026-05-03 20:58 |
|---|---|
| Airport | Minneapolis–Saint Paul International Airport / Wold–Chamberlain Field (KMSP) |
| Time | Latitude | Longitude | Altitude | Speed | Heading |
|---|---|---|---|---|---|
| 2026-05-03 20:15 | 47.77049 | -90.39155 | 35705 ft | 451 kts | 233° |
| 2026-05-03 20:15 | 47.73289 | -90.46421 | 35705 ft | 451 kts | 233° |
| 2026-05-03 20:16 | 47.69466 | -90.53790 | 35705 ft | 451 kts | 233° |
| 2026-05-03 20:16 | 47.65751 | -90.60934 | 35705 ft | 451 kts | 233° |
| 2026-05-03 20:17 | 47.62029 | -90.68082 | 35705 ft | 451 kts | 232° |
| 2026-05-03 20:17 | 47.58295 | -90.75254 | 35705 ft | 451 kts | 232° |
| 2026-05-03 20:18 | 47.54586 | -90.82345 | 35705 ft | 451 kts | 232° |
| 2026-05-03 20:18 | 47.52693 | -90.85953 | 35705 ft | 451 kts | 232° |
| 2026-05-03 20:19 | 47.42895 | -91.04526 | 35707 ft | 452 kts | 233° |
| 2026-05-03 20:20 | 47.39062 | -91.11754 | 35713 ft | 456 kts | 234° |
| 2026-05-03 20:20 | 47.35560 | -91.18353 | 35721 ft | 460 kts | 234° |
| 2026-05-03 20:21 | 47.31650 | -91.25703 | 35733 ft | 464 kts | 234° |
| 2026-05-03 20:21 | 47.27948 | -91.32647 | 35739 ft | 465 kts | 234° |
| 2026-05-03 20:22 | 47.24064 | -91.39906 | 35742 ft | 465 kts | 234° |
| 2026-05-03 20:22 | 47.20144 | -91.47211 | 35743 ft | 465 kts | 234° |
| 2026-05-03 20:23 | 47.16227 | -91.54489 | 35743 ft | 465 kts | 234° |
| 2026-05-03 20:23 | 47.12479 | -91.61437 | 35743 ft | 465 kts | 234° |
| 2026-05-03 20:24 | 47.08622 | -91.68574 | 35743 ft | 465 kts | 233° |
| 2026-05-03 20:24 | 47.04788 | -91.75667 | 35743 ft | 465 kts | 233° |
| 2026-05-03 20:25 | 47.00909 | -91.82802 | 35743 ft | 463 kts | 234° |
| 2026-05-03 20:25 | 46.97120 | -91.89746 | 35744 ft | 459 kts | 234° |
| 2026-05-03 20:26 | 46.93347 | -91.96644 | 35745 ft | 455 kts | 234° |
| 2026-05-03 20:26 | 46.89560 | -92.03546 | 35747 ft | 451 kts | 234° |
| 2026-05-03 20:27 | 46.85589 | -92.10711 | 35750 ft | 446 kts | 234° |
| 2026-05-03 20:27 | 46.81591 | -92.17946 | 35754 ft | 446 kts | 234° |
| 2026-05-03 20:28 | 46.77553 | -92.24777 | 35758 ft | 447 kts | 231° |
| 2026-05-03 20:28 | 46.73415 | -92.31366 | 35759 ft | 448 kts | 230° |
| 2026-05-03 20:29 | 46.69000 | -92.38036 | 35761 ft | 448 kts | 230° |
| 2026-05-03 20:29 | 46.64623 | -92.44617 | 35762 ft | 448 kts | 230° |
| 2026-05-03 20:30 | 46.60708 | -92.50487 | 35761 ft | 448 kts | 230° |
| 2026-05-03 20:30 | 46.57402 | -92.55431 | 35762 ft | 448 kts | 229° |
| 2026-05-03 20:31 | 46.52976 | -92.62037 | 35762 ft | 448 kts | 229° |
| 2026-05-03 20:31 | 46.48611 | -92.68542 | 35766 ft | 449 kts | 229° |
| 2026-05-03 20:32 | 46.44342 | -92.74904 | 35773 ft | 449 kts | 229° |
| 2026-05-03 20:32 | 46.40116 | -92.81173 | 35781 ft | 449 kts | 229° |
| 2026-05-03 20:33 | 46.35979 | -92.87289 | 35785 ft | 449 kts | 229° |
| 2026-05-03 20:33 | 46.31667 | -92.93639 | 35788 ft | 450 kts | 229° |
| 2026-05-03 20:34 | 46.27419 | -92.99879 | 35788 ft | 453 kts | 230° |
| 2026-05-03 20:34 | 46.22966 | -93.06407 | 35789 ft | 457 kts | 230° |
| 2026-05-03 20:35 | 46.18554 | -93.12865 | 35790 ft | 462 kts | 230° |
| 2026-05-03 20:35 | 46.14182 | -93.19247 | 35804 ft | 464 kts | 230° |
| 2026-05-03 20:35 | 46.12120 | -93.22246 | 35675 ft | 463 kts | 230° |
| 2026-05-03 20:36 | 46.09878 | -93.25502 | 35081 ft | 466 kts | 230° |
| 2026-05-03 20:36 | 46.07812 | -93.28500 | 34283 ft | 471 kts | 230° |
| 2026-05-03 20:36 | 46.05601 | -93.31710 | 33387 ft | 476 kts | 230° |
| 2026-05-03 20:36 | 46.03207 | -93.35165 | 32461 ft | 480 kts | 229° |
| 2026-05-03 20:37 | 46.00697 | -93.38501 | 31571 ft | 484 kts | 226° |
| 2026-05-03 20:37 | 45.98229 | -93.41624 | 30720 ft | 485 kts | 226° |
| 2026-05-03 20:37 | 45.95980 | -93.44443 | 29956 ft | 486 kts | 225° |
| 2026-05-03 20:37 | 45.93483 | -93.47563 | 29089 ft | 487 kts | 225° |
| 2026-05-03 20:38 | 45.91152 | -93.50472 | 28240 ft | 488 kts | 225° |
| 2026-05-03 20:38 | 45.88800 | -93.53399 | 27356 ft | 489 kts | 225° |
| 2026-05-03 20:38 | 45.86445 | -93.56313 | 26443 ft | 491 kts | 225° |
| 2026-05-03 20:38 | 45.84042 | -93.59283 | 25489 ft | 492 kts | 224° |
| 2026-05-03 20:39 | 45.81534 | -93.62392 | 24546 ft | 491 kts | 224° |
| 2026-05-03 20:39 | 45.79495 | -93.64921 | 24082 ft | 484 kts | 224° |
| 2026-05-03 20:39 | 45.76815 | -93.67683 | 23457 ft | 483 kts | 210° |
| 2026-05-03 20:39 | 45.73571 | -93.69125 | 22972 ft | 479 kts | 188° |
| 2026-05-03 20:40 | 45.70204 | -93.68895 | 22557 ft | 472 kts | 168° |
| 2026-05-03 20:40 | 45.67154 | -93.67166 | 22021 ft | 465 kts | 151° |
| 2026-05-03 20:40 | 45.64310 | -93.64848 | 21519 ft | 458 kts | 150° |
| 2026-05-03 20:40 | 45.61416 | -93.62752 | 21008 ft | 451 kts | 155° |
| 2026-05-03 20:41 | 45.58534 | -93.61028 | 20511 ft | 444 kts | 159° |
| 2026-05-03 20:41 | 45.55604 | -93.59443 | 20017 ft | 434 kts | 159° |
| 2026-05-03 20:41 | 45.52753 | -93.57916 | 19541 ft | 423 kts | 159° |
| 2026-05-03 20:41 | 45.49957 | -93.56411 | 18863 ft | 417 kts | 159° |
| 2026-05-03 20:42 | 45.47228 | -93.54936 | 18178 ft | 413 kts | 159° |
| 2026-05-03 20:42 | 45.44505 | -93.53458 | 17486 ft | 408 kts | 159° |
| 2026-05-03 20:42 | 45.41803 | -93.51991 | 16791 ft | 404 kts | 159° |
| 2026-05-03 20:42 | 45.39172 | -93.50565 | 16141 ft | 398 kts | 159° |
| 2026-05-03 20:43 | 45.36652 | -93.49202 | 15851 ft | 383 kts | 159° |
| 2026-05-03 20:43 | 45.34293 | -93.47929 | 15525 ft | 372 kts | 159° |
| 2026-05-03 20:43 | 45.31970 | -93.46691 | 15155 ft | 364 kts | 159° |
| 2026-05-03 20:43 | 45.29586 | -93.45423 | 14753 ft | 356 kts | 159° |
| 2026-05-03 20:44 | 45.27316 | -93.44214 | 14363 ft | 353 kts | 159° |
| 2026-05-03 20:44 | 45.24987 | -93.42971 | 13955 ft | 351 kts | 159° |
| 2026-05-03 20:44 | 45.23456 | -93.42154 | 13685 ft | 350 kts | 159° |
| 2026-05-03 20:44 | 45.21142 | -93.40919 | 13277 ft | 348 kts | 159° |
| 2026-05-03 20:45 | 45.18890 | -93.39720 | 13148 ft | 335 kts | 159° |
| 2026-05-03 20:45 | 45.16710 | -93.38560 | 13071 ft | 321 kts | 159° |
| 2026-05-03 20:45 | 45.14602 | -93.37425 | 12934 ft | 312 kts | 158° |
| 2026-05-03 20:45 | 45.12587 | -93.36200 | 12580 ft | 310 kts | 156° |
| 2026-05-03 20:46 | 45.10595 | -93.34940 | 12235 ft | 308 kts | 156° |
| 2026-05-03 20:46 | 45.08805 | -93.33798 | 11921 ft | 307 kts | 156° |
| 2026-05-03 20:46 | 45.07016 | -93.32659 | 11603 ft | 306 kts | 158° |
| 2026-05-03 20:46 | 45.04987 | -93.31636 | 11248 ft | 304 kts | 167° |
| 2026-05-03 20:47 | 45.02877 | -93.31034 | 10894 ft | 302 kts | 174° |
| 2026-05-03 20:47 | 45.00904 | -93.30659 | 10567 ft | 298 kts | 175° |
| 2026-05-03 20:47 | 44.98846 | -93.30303 | 10234 ft | 294 kts | 176° |
| 2026-05-03 20:47 | 44.96767 | -93.29942 | 9898 ft | 290 kts | 176° |
| 2026-05-03 20:48 | 44.94836 | -93.29596 | 9592 ft | 288 kts | 176° |
| 2026-05-03 20:48 | 44.93135 | -93.29286 | 9321 ft | 287 kts | 176° |
| 2026-05-03 20:48 | 44.91372 | -93.28963 | 9041 ft | 285 kts | 176° |
| 2026-05-03 20:48 | 44.89481 | -93.28613 | 8742 ft | 285 kts | 175° |
| 2026-05-03 20:49 | 44.87766 | -93.28293 | 8473 ft | 285 kts | 175° |
| 2026-05-03 20:49 | 44.85755 | -93.27915 | 8166 ft | 283 kts | 176° |
| 2026-05-03 20:49 | 44.83889 | -93.27567 | 8104 ft | 270 kts | 175° |
| 2026-05-03 20:49 | 44.82059 | -93.27224 | 8062 ft | 265 kts | 176° |
| 2026-05-03 20:50 | 44.80234 | -93.26882 | 8010 ft | 265 kts | 176° |
| 2026-05-03 20:50 | 44.78371 | -93.26305 | 7981 ft | 268 kts | 155° |
| 2026-05-03 20:50 | 44.77004 | -93.24666 | 7996 ft | 268 kts | 125° |
| 2026-05-03 20:50 | 44.76024 | -93.22361 | 8001 ft | 268 kts | 116° |
| 2026-05-03 20:51 | 44.75200 | -93.20118 | 7985 ft | 269 kts | 116° |
| 2026-05-03 20:51 | 44.74300 | -93.17799 | 7400 ft | 282 kts | 118° |
| 2026-05-03 20:51 | 44.73392 | -93.15586 | 7112 ft | 278 kts | 119° |
| 2026-05-03 20:51 | 44.72429 | -93.13296 | 6837 ft | 274 kts | 120° |
| 2026-05-03 20:52 | 44.71523 | -93.11011 | 6564 ft | 269 kts | 109° |
| 2026-05-03 20:52 | 44.71275 | -93.08651 | 6074 ft | 268 kts | 77° |
| 2026-05-03 20:52 | 44.71987 | -93.06406 | 5459 ft | 256 kts | 41° |
| 2026-05-03 20:52 | 44.73374 | -93.05010 | 4881 ft | 247 kts | 26° |
| 2026-05-03 20:53 | 44.74782 | -93.03851 | 4346 ft | 245 kts | 27° |
| 2026-05-03 20:53 | 44.76242 | -93.02617 | 4042 ft | 230 kts | 26° |
| 2026-05-03 20:53 | 44.77580 | -93.01487 | 3942 ft | 209 kts | 26° |
| 2026-05-03 20:53 | 44.78873 | -93.00787 | 3830 ft | 180 kts | 359° |
| 2026-05-03 20:54 | 44.79979 | -93.01304 | 3675 ft | 161 kts | 317° |
| 2026-05-03 20:54 | 44.80804 | -93.04121 | 3362 ft | 152 kts | 290° |
| 2026-05-03 20:54 | 44.81182 | -93.05497 | 3167 ft | 151 kts | 297° |
| 2026-05-03 20:55 | 44.81663 | -93.06849 | 2969 ft | 152 kts | 301° |
| 2026-05-03 20:55 | 44.82149 | -93.08056 | 2807 ft | 152 kts | 303° |
| 2026-05-03 20:55 | 44.82678 | -93.09301 | 2616 ft | 151 kts | 303° |
| 2026-05-03 20:55 | 44.83228 | -93.10580 | 2416 ft | 150 kts | 303° |
| 2026-05-03 20:56 | 44.83784 | -93.11869 | 2213 ft | 150 kts | 304° |
| 2026-05-03 20:56 | 44.84320 | -93.13110 | 2016 ft | 150 kts | 303° |
| 2026-05-03 20:56 | 44.84871 | -93.14387 | 1813 ft | 150 kts | 304° |
| 2026-05-03 20:56 | 44.85384 | -93.15575 | 1607 ft | 139 kts | 303° |
| 2026-05-03 20:57 | 44.85878 | -93.16717 | 1424 ft | 137 kts | 303° |
| 2026-05-03 20:57 | 44.86385 | -93.17890 | 1246 ft | 136 kts | 304° |
| 2026-05-03 20:57 | 44.86889 | -93.19053 | 1049 ft | 135 kts | 304° |
| 2026-05-03 20:57 | 44.87387 | -93.20193 | 880 ft | 132 kts | 303° |
| 2026-05-03 20:58 | 44.87833 | -93.21216 | 849 ft | 102 kts | 301° |
| 2026-05-03 20:58 | 44.88099 | -93.21845 | 849 ft | 54 kts | 302° |
| 2026-05-03 20:58 | 44.88227 | -93.22002 | 849 ft | 18 kts | 13° |
| 2026-05-03 20:58 | 44.88287 | -93.21960 | 849 ft | 4 kts | 32° |
| 2026-05-03 20:59 | 44.88298 | -93.21950 | 849 ft | 6 kts | 34° |
| 2026-05-03 20:59 | 44.88374 | -93.21863 | 849 ft | 14 kts | 44° |
| 2026-05-03 20:59 | 44.88452 | -93.21754 | 849 ft | 16 kts | 46° |
| 2026-05-03 20:59 | 44.88526 | -93.21630 | 849 ft | 16 kts | 82° |
| 2026-05-03 21:00 | 44.88469 | -93.21484 | 849 ft | 17 kts | 117° |
| 2026-05-03 21:00 | 44.88435 | -93.21375 | 849 ft | 16 kts | 113° |
| 2026-05-03 21:00 | 44.88414 | -93.21307 | 849 ft | 2 kts | 107° |
| 2026-05-03 21:00 | 44.88418 | -93.21294 | 849 ft | 3 kts | 52° |
| 2026-05-03 21:01 | 44.88436 | -93.21263 | 849 ft | 4 kts | 46° |
| 2026-05-03 21:01 | 44.88446 | -93.21250 | 849 ft | 0 kts | 42° |